weather.gov     
National Weather Service

Terminal Aerodrome Forecast
NWS Homepage
This page is being discontinued on March 12, 2014.
The same data is available at this site. Please update your bookmarks.
Thank you, and we apologize for the inconvenience.
Please send an email to SR-SRH.Webmaster@noaa.gov with any concerns.


Current Version
Previous Version:    01  02  03  04  05  06  07  08  09  10  11  12  13  14  15  16  17  18  19  20  21  22  23  24  25  26  27  28  29  30  
   31  32  33  34  35  36  37  38  39  40  41  42  43  44  45  
[Printable]
946
FTAK31 PAJN 220000 AAA
TAFAWG
TAF AMD
PAWG 220013Z 2200/2224 18018G28KT P6SM -RA BKN040 OVC080
      WS020/15040KT
     FM220200 19012G20KT P6SM -SHRA BKN035 OVC060 WS020/18035KT
     FM220600 16012KT P6SM -SHRA BKN030 OVC050
     FM221200 13007KT P6SM -SHRA SCT015 BKN030 OVC050
     FM222000 12008KT P6SM -SHRA BKN025 OVC040
      AMD LTD TO CLD VIS AND WIND 2206/2215=


U.S. Dept. of Commerce
NOAA National Weather Service
1325 East West Highway
Silver Spring, MD 20910
E-mail: w-nws.webmaster@noaa.gov
Page last modified: May 16, 2007
NATIONAL WEATHER SERVICE: for Safety, for Work, for Fun - FOR LIFE